Time;durP1;ratioP1;P1;durP2;ratioP2;P2;SDS_P1;SDS_P2;PMS_P1;PMS_P2;Temp;Humidity;BMP_temperature;BMP_pressure;BME280_temperature;BME280_humidity;BME280_pressure;Samples;Min_cycle;Max_cycle;Signal;HPM_P1;HPM_P2
2023/12/18 00:01:14;;;;;;;10.57;6.93;;;2.40;90.10;;;4.60;61.20;99494.84;5033297;28;20049;-50
2023/12/18 00:03:41;;;;;;;12.13;8.30;;;2.50;90.20;;;4.60;61.52;99493.03;5032457;28;20033;-51
2023/12/18 00:06:09;;;;;;;13.33;9.23;;;2.50;89.30;;;4.58;60.85;99494.06;5033070;28;20053;-52
2023/12/18 00:08:37;;;;;;;12.30;7.10;;;2.40;88.90;;;4.56;60.87;99495.94;5032877;28;20049;-50
2023/12/18 00:11:04;;;;;;;10.30;7.10;;;2.40;88.80;;;4.50;60.78;99486.53;5033023;28;20472;-50
2023/12/18 00:13:32;;;;;;;10.97;6.47;;;2.30;89.70;;;4.48;61.29;99478.69;5032971;28;20038;-50
2023/12/18 00:16:01;;;;;;;9.83;7.67;;;2.30;90.60;;;4.47;61.20;99476.97;5032904;28;20045;-48
2023/12/18 00:18:29;;;;;;;10.70;7.53;;;2.40;90.40;;;4.49;61.33;99471.63;5032597;28;20081;-51
2023/12/18 00:20:56;;;;;;;8.73;6.13;;;2.40;91.20;;;4.47;61.19;99471.69;5032911;28;20052;-48
2023/12/18 00:23:25;;;;;;;10.93;6.77;;;2.30;89.90;;;4.45;61.17;99462.16;5033242;28;20107;-49
2023/12/18 00:25:53;;;;;;;9.70;6.67;;;2.30;89.60;;;4.40;61.10;99462.41;5032867;28;20386;-49
2023/12/18 00:28:20;;;;;;;10.97;6.53;;;2.20;89.70;;;4.38;60.83;99466.91;5032253;28;20080;-52
2023/12/18 00:30:48;;;;;;;10.90;7.03;;;2.20;90.20;;;4.40;61.32;99451.00;5032672;28;20056;-49
2023/12/18 00:33:16;;;;;;;10.10;7.10;;;2.20;90.40;;;4.39;60.83;99451.94;5032587;28;20441;-51
2023/12/18 00:35:44;;;;;;;8.50;5.80;;;2.30;89.10;;;4.34;60.55;99447.75;5032361;28;20042;-50
2023/12/18 00:38:11;;;;;;;6.93;5.53;;;2.20;89.60;;;4.34;61.67;99439.84;5030606;28;20107;-51
2023/12/18 00:40:39;;;;;;;8.07;6.57;;;2.20;90.50;;;4.33;61.68;99440.75;5032670;28;20393;-52
2023/12/18 00:43:06;;;;;;;9.43;6.90;;;2.20;90.70;;;4.33;61.34;99437.28;5032264;28;20045;-51
2023/12/18 00:45:34;;;;;;;9.80;7.17;;;2.20;90.80;;;4.35;61.19;99443.31;5032488;28;20049;-47
2023/12/18 00:48:02;;;;;;;14.33;7.70;;;2.20;91.00;;;4.37;61.81;99441.47;5032183;28;20060;-52
2023/12/18 00:50:29;;;;;;;15.67;7.97;;;2.30;91.70;;;4.38;61.34;99443.19;5032124;28;20060;-50
2023/12/18 00:52:57;;;;;;;11.37;7.10;;;2.30;90.50;;;4.38;61.09;99434.41;5032223;28;20521;-51
2023/12/18 00:55:25;;;;;;;10.27;7.57;;;2.30;89.70;;;4.36;61.66;99433.63;5032123;28;20049;-47
2023/12/18 00:57:52;;;;;;;10.57;7.10;;;2.30;89.80;;;4.35;61.25;99438.06;5032014;28;20048;-52
2023/12/18 01:00:21;;;;;;;11.07;6.50;;;2.30;90.40;;;4.36;61.34;99442.38;5031948;28;20033;-49
2023/12/18 01:02:49;;;;;;;9.90;7.33;;;2.30;90.00;;;4.37;61.22;99444.09;5031206;28;20417;-49
2023/12/18 01:05:16;;;;;;;11.87;7.37;;;2.30;91.30;;;4.40;61.47;99446.59;5032000;28;20412;-48
2023/12/18 01:07:44;;;;;;;12.50;7.07;;;2.30;92.20;;;4.42;62.06;99442.09;5022521;28;20049;-49
2023/12/18 01:10:11;;;;;;;9.67;7.23;;;2.40;91.60;;;4.45;61.22;99449.81;5031948;28;20306;-50
2023/12/18 01:12:39;;;;;;;10.53;6.23;;;2.40;91.60;;;4.46;61.66;99441.00;5031655;28;20041;-51
2023/12/18 01:15:07;;;;;;;11.30;7.03;;;2.50;91.40;;;4.49;61.71;99442.63;5032450;28;20186;-49
2023/12/18 01:17:35;;;;;;;8.90;6.60;;;2.40;90.60;;;4.49;61.46;99432.06;5030224;28;20390;-49
2023/12/18 01:20:06;;;;;;;8.23;6.40;;;2.40;90.20;;;4.50;61.47;99436.41;5031882;28;20528;-51
2023/12/18 01:22:33;;;;;;;10.50;6.63;;;2.40;90.20;;;4.49;61.01;99437.34;5031384;28;20464;-50
2023/12/18 01:25:03;;;;;;;8.23;6.33;;;2.40;90.10;;;4.49;61.77;99432.91;5031779;28;20412;-51
2023/12/18 01:27:30;;;;;;;10.47;6.77;;;2.40;90.20;;;4.50;61.00;99425.88;5031329;28;20464;-49
2023/12/18 01:29:58;;;;;;;13.50;7.40;;;2.40;90.30;;;4.50;61.48;99428.50;5031659;28;20041;-49
2023/12/18 01:32:25;;;;;;;15.17;8.10;;;2.40;90.60;;;4.48;61.42;99431.22;5031488;28;20413;-49
2023/12/18 01:34:54;;;;;;;13.27;8.37;;;2.40;90.20;;;4.49;61.46;99434.69;5031089;28;20532;-50
2023/12/18 01:37:21;;;;;;;11.20;7.37;;;2.40;89.80;;;4.49;61.47;99434.69;5031202;28;20048;-50
2023/12/18 01:39:49;;;;;;;12.87;8.20;;;2.40;90.00;;;4.49;61.96;99426.78;5031544;28;20053;-49
2023/12/18 01:42:17;;;;;;;11.80;7.37;;;2.40;89.70;;;4.48;61.20;99431.22;5031124;28;20045;-52
2023/12/18 01:44:44;;;;;;;9.63;7.33;;;2.40;89.50;;;4.47;61.47;99421.59;5030032;28;20045;-49
2023/12/18 01:47:12;;;;;;;12.37;7.40;;;2.40;89.40;;;4.48;61.30;99427.75;5031255;28;20045;-48
2023/12/18 01:49:40;;;;;;;10.97;6.83;;;2.40;89.50;;;4.47;61.59;99424.22;5031500;28;20045;-49
2023/12/18 01:52:08;;;;;;;8.63;6.10;;;2.40;89.40;;;4.44;61.41;99419.13;5013762;28;20064;-48
2023/12/18 01:54:36;;;;;;;8.90;6.40;;;2.30;89.50;;;4.42;61.21;99418.34;5030963;28;20045;-51
2023/12/18 01:57:05;;;;;;;9.03;6.67;;;2.30;89.40;;;4.40;61.27;99414.06;5029738;28;20477;-49
2023/12/18 01:59:34;;;;;;;9.77;6.53;;;2.30;89.70;;;4.38;61.41;99406.25;5031165;28;20045;-48
2023/12/18 02:02:02;;;;;;;9.63;6.30;;;2.20;89.20;;;4.36;61.17;99405.47;5028738;28;20045;-49
2023/12/18 02:04:30;;;;;;;10.60;6.90;;;2.20;89.90;;;4.36;61.20;99412.53;5030479;28;20041;-48
2023/12/18 02:07:03;;;;;;;9.93;6.97;;;2.30;89.90;;;4.34;61.13;99407.31;5031384;28;20045;-50
2023/12/18 02:09:31;;;;;;;11.60;7.00;;;2.20;89.30;;;4.30;61.13;99409.28;5029767;28;20049;-49
2023/12/18 02:11:59;;;;;;;11.03;6.57;;;2.10;88.90;;;4.24;60.93;99401.66;5029537;28;20489;-49
2023/12/18 02:14:27;;;;;;;10.07;6.90;;;2.00;89.00;;;4.20;61.61;99400.13;5031021;28;20076;-50
2023/12/18 02:16:54;;;;;;;9.63;6.80;;;2.00;90.00;;;4.18;61.49;99403.78;5031133;28;20605;-50
2023/12/18 02:19:29;;;;;;;8.60;5.50;;;1.90;90.00;;;4.15;60.78;99402.16;5029817;28;20041;-48
2023/12/18 02:21:58;;;;;;;8.73;6.70;;;1.90;90.30;;;4.14;61.16;99392.53;5030906;28;20049;-50
2023/12/18 02:24:25;;;;;;;10.73;6.40;;;1.90;90.30;;;4.12;61.05;99387.34;5031042;28;20064;-49
2023/12/18 02:26:55;;;;;;;9.43;6.50;;;1.90;90.10;;;4.12;61.23;99382.06;5030801;28;20045;-47
2023/12/18 02:29:23;;;;;;;9.00;5.90;;;2.00;89.80;;;4.12;61.16;99387.34;5030860;28;20045;-49
2023/12/18 02:31:50;;;;;;;8.57;6.57;;;2.00;89.50;;;4.12;61.72;99389.97;5031005;28;20416;-53
2023/12/18 02:34:18;;;;;;;12.83;7.67;;;2.00;89.70;;;4.11;61.56;99390.91;5030333;28;20038;-51
2023/12/18 02:36:48;;;;;;;13.63;7.77;;;2.00;89.40;;;4.09;61.02;99390.16;5030513;28;20053;-50
2023/12/18 02:39:16;;;;;;;10.33;7.10;;;2.00;91.50;;;4.12;61.81;99381.22;5030906;28;20496;-52
2023/12/18 02:41:43;;;;;;;11.23;6.70;;;2.10;91.50;;;4.10;61.55;99378.66;5022852;28;20644;-53
2023/12/18 02:44:11;;;;;;;7.63;5.70;;;2.10;90.80;;;4.11;61.82;99369.81;5030801;28;20056;-49
2023/12/18 02:46:39;;;;;;;6.57;5.93;;;2.00;91.10;;;4.13;61.20;99373.25;5030563;28;20439;-50
2023/12/18 02:49:07;;;;;;;8.43;6.40;;;2.10;91.10;;;4.12;62.22;99366.25;5029752;28;20415;-50
2023/12/18 02:51:35;;;;;;;9.70;6.53;;;2.00;90.70;;;4.12;61.75;99371.53;5030833;28;20053;-49
2023/12/18 02:54:03;;;;;;;12.70;6.63;;;2.00;90.30;;;4.09;61.42;99365.53;5029665;28;20050;-47
2023/12/18 02:56:30;;;;;;;9.93;6.37;;;2.00;90.80;;;4.09;61.61;99370.81;5030732;28;20049;-51
2023/12/18 02:58:58;;;;;;;9.30;5.77;;;2.00;90.80;;;4.07;62.07;99372.69;5029043;28;20048;-48
2023/12/18 03:01:25;;;;;;;13.43;7.73;;;2.00;89.80;;;4.07;61.31;99375.31;5030361;28;20493;-48
2023/12/18 03:03:53;;;;;;;12.90;7.40;;;1.90;90.80;;;4.01;61.74;99373.00;5029680;28;20040;-49
2023/12/18 03:06:21;;;;;;;9.53;6.43;;;1.90;91.10;;;4.00;61.84;99369.50;5028652;28;20084;-53
2023/12/18 03:08:48;;;;;;;7.97;5.90;;;1.90;91.00;;;3.98;61.62;99373.16;5030339;28;20424;-52
2023/12/18 03:11:16;;;;;;;7.70;5.87;;;1.90;90.00;;;3.98;61.82;99374.00;5030372;28;20054;-50
2023/12/18 03:13:44;;;;;;;11.13;6.37;;;1.90;89.70;;;3.99;61.55;99378.34;5030431;28;20048;-51
2023/12/18 03:16:14;;;;;;;9.93;6.03;;;1.80;90.30;;;3.99;61.22;99373.06;5030596;28;20048;-49
2023/12/18 03:18:41;;;;;;;8.07;6.07;;;1.90;89.30;;;4.00;61.17;99366.88;5030345;28;20045;-50
2023/12/18 03:21:10;;;;;;;8.10;5.60;;;1.90;90.00;;;4.01;61.20;99359.81;5030896;28;20046;-49
2023/12/18 03:23:38;;;;;;;7.57;5.57;;;1.90;89.20;;;4.00;61.21;99360.75;5031706;28;20049;-53
2023/12/18 03:26:05;;;;;;;8.97;6.30;;;1.90;89.00;;;3.96;61.39;99359.22;5034129;28;20052;-47
2023/12/18 03:28:33;;;;;;;11.60;6.90;;;1.80;88.60;;;3.92;61.57;99359.34;5033687;28;20060;-50
2023/12/18 03:31:00;;;;;;;10.00;6.97;;;1.80;90.10;;;3.92;61.15;99359.34;5033932;28;20497;-48
2023/12/18 03:33:28;;;;;;;9.37;6.47;;;1.80;91.00;;;3.94;61.61;99364.56;5032368;28;20049;-50
2023/12/18 03:35:56;;;;;;;10.97;7.87;;;1.80;90.00;;;3.96;61.99;99372.41;5033768;28;20037;-47
2023/12/18 03:38:24;;;;;;;11.07;6.90;;;1.90;89.70;;;3.97;61.78;99369.66;5032255;28;20509;-48
2023/12/18 03:40:52;;;;;;;13.77;8.27;;;1.90;89.90;;;3.97;61.03;99374.94;5032310;28;20257;-48
2023/12/18 03:43:19;;;;;;;10.80;7.23;;;1.90;89.10;;;3.96;61.04;99365.34;5033691;28;20042;-48
2023/12/18 03:45:47;;;;;;;10.67;7.10;;;1.90;88.40;;;3.93;60.74;99362.84;5033443;28;20045;-49
2023/12/18 03:48:15;;;;;;;9.40;6.80;;;1.80;88.30;;;3.89;60.99;99364.78;5033555;28;20049;-48
2023/12/18 03:50:43;;;;;;;10.03;6.30;;;1.70;88.70;;;3.86;61.11;99361.47;5032171;28;20425;-49
2023/12/18 03:53:11;;;;;;;6.77;5.63;;;1.70;89.50;;;3.86;61.43;99369.38;5032275;28;20167;-48
2023/12/18 03:55:39;;;;;;;8.17;5.97;;;1.70;89.40;;;3.86;60.74;99364.09;5033322;28;20417;-47
2023/12/18 03:58:07;;;;;;;8.17;5.67;;;1.70;89.60;;;3.87;61.43;99368.44;5033109;28;20048;-50
2023/12/18 04:00:35;;;;;;;9.87;6.23;;;1.70;89.70;;;3.85;60.94;99367.66;5033124;28;20496;-50
2023/12/18 04:03:04;;;;;;;9.13;6.93;;;1.70;89.50;;;3.84;61.21;99365.94;5032097;28;20052;-51
2023/12/18 04:05:32;;;;;;;8.07;6.47;;;1.70;89.60;;;3.79;60.78;99354.78;5032576;28;20045;-51
2023/12/18 04:08:00;;;;;;;9.17;6.33;;;1.60;87.80;;;3.68;60.82;99350.91;5033106;28;20071;-49
2023/12/18 04:10:27;;;;;;;8.40;6.30;;;1.50;88.00;;;3.60;60.96;99347.78;5033325;28;20046;-47
2023/12/18 04:12:55;;;;;;;10.10;7.33;;;1.40;88.00;;;3.51;60.33;99362.28;5033083;28;20046;-52
2023/12/18 04:15:23;;;;;;;7.97;6.33;;;1.30;87.80;;;3.40;60.84;99363.72;5033183;28;20049;-51
2023/12/18 04:17:52;;;;;;;10.20;6.60;;;1.10;89.00;;;3.32;60.79;99356.19;5032460;28;20101;-48
2023/12/18 04:20:20;;;;;;;9.13;6.27;;;1.00;89.10;;;3.24;60.81;99363.59;5033194;28;20041;-51
2023/12/18 04:22:49;;;;;;;8.67;6.20;;;0.90;89.30;;;3.18;61.15;99361.25;5032882;28;20060;-49
2023/12/18 04:25:16;;;;;;;11.23;6.23;;;0.90;90.00;;;3.15;61.37;99346.47;5033022;28;20037;-51
2023/12/18 04:27:44;;;;;;;11.03;6.87;;;0.90;90.90;;;3.11;61.00;99343.13;5032736;28;20111;-49
2023/12/18 04:30:12;;;;;;;8.70;6.50;;;0.90;90.80;;;3.11;61.10;99348.38;5033067;28;20053;-50
2023/12/18 04:32:40;;;;;;;10.53;7.17;;;0.90;90.80;;;3.11;60.96;99351.00;5032782;28;20049;-49
2023/12/18 04:35:08;;;;;;;11.33;6.70;;;0.90;90.40;;;3.11;61.30;99355.44;5031152;28;20516;-50
2023/12/18 04:37:36;;;;;;;8.70;6.37;;;0.90;90.50;;;3.12;61.23;99355.38;5032149;28;20045;-51
2023/12/18 04:40:04;;;;;;;9.73;6.97;;;1.00;90.60;;;3.09;60.99;99344.97;5026865;28;20413;-51
2023/12/18 04:42:32;;;;;;;9.77;6.30;;;0.90;89.90;;;3.07;61.56;99348.63;5032283;28;20505;-51
2023/12/18 04:45:00;;;;;;;9.13;6.43;;;0.90;91.00;;;3.08;61.48;99350.31;5032606;28;20049;-49
2023/12/18 04:47:27;;;;;;;9.77;5.67;;;0.90;91.60;;;3.11;61.58;99352.81;5032142;28;20053;-50
2023/12/18 04:49:55;;;;;;;7.40;5.80;;;1.00;91.50;;;3.15;61.58;99347.31;5024353;28;20417;-48
2023/12/18 04:52:23;;;;;;;8.90;5.80;;;1.10;91.30;;;3.17;61.67;99341.13;5032476;28;20050;-53
2023/12/18 04:54:50;;;;;;;9.07;5.63;;;1.10;91.40;;;3.18;61.84;99348.97;5032258;28;20432;-51
2023/12/18 04:57:18;;;;;;;9.50;6.07;;;1.10;91.80;;;3.20;62.07;99351.50;5031980;28;20063;-49
2023/12/18 04:59:45;;;;;;;8.57;5.80;;;1.10;91.80;;;3.23;61.86;99346.94;5032297;28;20285;-51
2023/12/18 05:02:13;;;;;;;8.63;5.80;;;1.10;91.50;;;3.28;62.13;99349.38;5031928;28;20509;-52
2023/12/18 05:04:40;;;;;;;9.23;5.60;;;1.20;92.70;;;3.34;61.73;99349.91;5029079;28;20072;-51
2023/12/18 05:07:11;;;;;;;9.63;5.70;;;1.30;91.80;;;3.40;62.07;99351.41;5031852;28;20045;-49
2023/12/18 05:09:39;;;;;;;8.60;5.97;;;1.40;90.90;;;3.44;61.69;99347.69;5030926;28;20060;-50
2023/12/18 05:12:07;;;;;;;6.87;5.17;;;1.40;90.40;;;3.45;61.90;99349.41;5031947;28;20052;-50
2023/12/18 05:14:35;;;;;;;6.97;5.17;;;1.40;90.40;;;3.49;61.94;99344.81;5031968;28;20042;-51
2023/12/18 05:17:02;;;;;;;6.00;4.40;;;1.40;90.40;;;3.52;61.69;99348.16;5031392;28;20041;-50
2023/12/18 05:19:30;;;;;;;9.37;5.43;;;1.50;90.40;;;3.55;61.91;99340.13;5031933;28;20037;-50
2023/12/18 05:21:58;;;;;;;8.73;5.33;;;1.50;89.90;;;3.55;61.64;99340.13;5023638;28;20037;-51
2023/12/18 05:24:26;;;;;;;7.60;5.27;;;1.50;89.50;;;3.56;61.64;99322.53;5030794;28;20045;-49
2023/12/18 05:26:53;;;;;;;7.43;5.33;;;1.50;90.20;;;3.58;61.86;99330.38;5031420;28;20049;-49
2023/12/18 05:29:21;;;;;;;4.83;3.93;;;1.50;90.30;;;3.61;61.99;99331.06;5031626;28;20045;-51
2023/12/18 05:31:48;;;;;;;5.50;4.03;;;1.60;90.90;;;3.67;62.12;99330.75;5031818;28;20057;-50
2023/12/18 05:34:16;;;;;;;9.33;5.30;;;1.70;90.70;;;3.73;62.22;99335.72;5031600;28;20057;-50
2023/12/18 05:36:44;;;;;;;17.23;9.57;;;1.80;89.80;;;3.75;61.39;99335.66;5031554;28;20050;-54
2023/12/18 05:39:11;;;;;;;7.87;6.50;;;1.80;88.90;;;3.78;61.96;99337.25;5031638;28;20043;-50
2023/12/18 05:41:39;;;;;;;6.87;5.00;;;1.80;89.60;;;3.81;61.72;99342.38;5031132;28;20053;-50
2023/12/18 05:44:07;;;;;;;6.50;4.73;;;1.90;89.10;;;3.82;61.57;99344.06;5031432;28;20052;-48
2023/12/18 05:46:34;;;;;;;7.07;5.03;;;1.90;88.30;;;3.81;61.78;99339.75;5030693;28;20444;-51
2023/12/18 05:49:02;;;;;;;6.17;4.70;;;1.80;88.20;;;3.81;61.86;99332.69;5029520;28;20424;-51
2023/12/18 05:51:30;;;;;;;6.77;4.87;;;1.80;88.50;;;3.83;61.60;99340.53;5030020;28;20033;-51
2023/12/18 05:53:57;;;;;;;6.97;4.40;;;1.80;88.30;;;3.84;61.49;99337.81;5031247;28;20048;-47
2023/12/18 05:56:25;;;;;;;5.47;4.37;;;1.80;87.70;;;3.82;61.06;99339.69;5031370;28;20049;-50
2023/12/18 05:58:52;;;;;;;7.77;5.57;;;1.70;87.70;;;3.83;60.89;99351.06;5030848;28;20045;-49
2023/12/18 06:01:20;;;;;;;18.73;9.20;;;1.70;88.10;;;3.83;60.96;99357.19;5029795;28;20041;-49
2023/12/18 06:03:48;;;;;;;22.90;11.37;;;1.80;88.00;;;3.73;61.23;99359.44;5031198;28;20041;-51
2023/12/18 06:06:16;;;;;;;9.57;6.77;;;1.70;88.00;;;3.67;61.14;99365.00;5031329;28;20041;-48
2023/12/18 06:08:44;;;;;;;8.67;6.57;;;1.60;88.70;;;3.65;61.05;99366.00;5029779;28;20041;-48
2023/12/18 06:11:15;;;;;;;7.23;5.63;;;1.60;89.30;;;3.61;61.02;99361.84;5031317;28;20045;-47
2023/12/18 06:13:42;;;;;;;8.83;5.33;;;1.50;88.70;;;3.58;60.93;99365.44;5031207;28;20420;-52
2023/12/18 06:16:10;;;;;;;7.73;6.03;;;1.40;89.70;;;3.56;61.39;99359.41;5031326;28;20049;-51
2023/12/18 06:18:38;;;;;;;7.23;6.00;;;1.40;89.80;;;3.56;61.21;99362.03;5030795;28;20052;-51
2023/12/18 06:21:06;;;;;;;9.20;5.50;;;1.40;89.20;;;3.55;61.42;99357.72;5030119;28;20045;-51
2023/12/18 06:23:33;;;;;;;9.07;5.60;;;1.40;89.10;;;3.53;61.27;99351.66;5030498;28;20046;-50
2023/12/18 06:26:03;;;;;;;9.50;6.57;;;1.40;89.00;;;3.52;61.13;99360.47;5031167;28;20060;-51
2023/12/18 06:28:30;;;;;;;8.00;5.20;;;1.30;88.90;;;3.52;61.24;99363.13;5029918;28;20049;-49
2023/12/18 06:30:58;;;;;;;6.87;5.40;;;1.30;88.80;;;3.45;60.92;99365.22;5030933;28;20042;-52
2023/12/18 06:33:26;;;;;;;8.67;6.50;;;1.20;88.90;;;3.43;61.48;99364.44;5031203;28;20054;-52
2023/12/18 06:35:54;;;;;;;8.70;5.53;;;1.20;89.20;;;3.42;60.90;99367.97;5030666;28;20056;-52
2023/12/18 06:38:22;;;;;;;8.17;6.13;;;1.20;89.20;;;3.41;61.12;99373.31;5030719;28;20045;-53
2023/12/18 06:40:50;;;;;;;8.40;5.43;;;1.20;89.20;;;3.40;60.92;99369.00;5030796;28;20048;-51
2023/12/18 06:43:17;;;;;;;9.20;5.83;;;1.20;89.00;;;3.40;61.37;99377.72;5031150;28;20053;-48
2023/12/18 06:45:45;;;;;;;9.37;6.13;;;1.20;89.00;;;3.39;61.26;99373.38;5030876;28;20042;-50
2023/12/18 06:48:13;;;;;;;8.67;5.00;;;1.20;88.90;;;3.39;60.66;99385.69;5030318;28;20053;-50
2023/12/18 06:50:40;;;;;;;8.40;5.80;;;1.20;88.70;;;3.36;60.78;99384.06;5030803;28;20053;-49
2023/12/18 06:53:08;;;;;;;9.97;5.17;;;1.20;89.90;;;3.35;60.88;99385.00;5029149;28;20038;-49
2023/12/18 06:55:36;;;;;;;8.43;5.17;;;1.20;89.80;;;3.34;61.25;99386.78;5030361;28;20053;-47
2023/12/18 06:58:03;;;;;;;8.60;5.87;;;1.20;89.00;;;3.32;61.53;99379.88;5032266;28;20049;-52
2023/12/18 07:00:31;;;;;;;7.33;5.20;;;1.20;89.10;;;3.29;61.02;99372.97;5034191;28;20041;-48
2023/12/18 07:03:08;;;;;;;8.73;6.07;;;1.10;89.60;;;3.30;61.10;99376.47;5025685;28;20366;-53
2023/12/18 07:05:36;;;;;;;8.43;5.43;;;1.10;89.40;;;3.27;61.21;99376.59;5029752;28;20042;-51
2023/12/18 07:08:04;;;;;;;6.67;4.53;;;1.10;90.00;;;3.27;61.23;99379.25;5032514;28;20056;-52
2023/12/18 07:10:32;;;;;;;7.93;5.60;;;1.10;89.90;;;3.29;61.19;99377.38;5033198;28;20508;-48
2023/12/18 07:12:59;;;;;;;9.10;5.83;;;1.10;90.00;;;3.25;61.18;99384.56;5033656;28;20046;-51
2023/12/18 07:15:27;;;;;;;9.03;6.27;;;1.10;89.20;;;3.25;61.09;99389.84;5034187;28;20060;-50
2023/12/18 07:17:58;;;;;;;8.13;6.97;;;1.10;89.60;;;3.27;61.00;99398.50;5034056;28;20050;-48
2023/12/18 07:20:26;;;;;;;12.10;7.10;;;1.20;89.70;;;3.29;61.29;99403.72;5034160;28;20037;-53
2023/12/18 07:22:53;;;;;;;10.03;6.93;;;1.30;89.90;;;3.30;61.59;99406.28;5034017;28;20041;-51
2023/12/18 07:25:21;;;;;;;12.17;7.60;;;1.30;89.70;;;3.32;61.22;99399.16;5034241;28;20046;-51
2023/12/18 07:27:49;;;;;;;12.33;7.87;;;1.30;88.90;;;3.33;61.33;99395.63;5034005;28;20072;-48
2023/12/18 07:30:17;;;;;;;10.10;7.23;;;1.40;89.00;;;3.34;61.26;99402.56;5033743;28;20049;-49
2023/12/18 07:32:45;;;;;;;9.23;7.07;;;1.30;88.60;;;3.34;61.42;99410.47;5033273;28;20512;-49
2023/12/18 07:35:13;;;;;;;12.03;7.67;;;1.30;88.70;;;3.35;61.14;99403.41;5033738;28;20426;-52
2023/12/18 07:37:41;;;;;;;11.33;6.73;;;1.40;89.10;;;3.39;61.47;99401.50;5032198;28;20064;-48
2023/12/18 07:40:09;;;;;;;11.17;7.17;;;1.40;88.30;;;3.39;61.32;99409.41;5032074;28;20049;-47
2023/12/18 07:42:37;;;;;;;9.70;7.33;;;1.30;88.80;;;3.35;61.18;99406.94;5032930;28;20072;-47
2023/12/18 07:45:05;;;;;;;11.23;7.57;;;1.30;87.50;;;3.28;61.06;99408.13;5033411;28;20421;-51
2023/12/18 07:47:33;;;;;;;12.23;7.47;;;1.10;87.50;;;3.24;60.91;99400.44;5033098;28;20417;-50
2023/12/18 07:50:00;;;;;;;13.43;9.37;;;1.00;88.10;;;3.19;61.05;99403.28;5033309;28;20037;-50
2023/12/18 07:52:28;;;;;;;14.33;8.43;;;1.00;89.50;;;3.18;61.48;99403.34;5033069;28;20038;-51
2023/12/18 07:54:56;;;;;;;11.57;8.63;;;1.00;89.70;;;3.17;61.31;99397.25;5032894;28;20048;-49
2023/12/18 07:57:23;;;;;;;11.23;8.57;;;1.00;90.30;;;3.21;61.03;99398.81;5032750;28;20044;-54
2023/12/18 07:59:51;;;;;;;14.30;9.60;;;1.10;90.10;;;3.22;61.12;99405.78;5033005;28;20038;-50
2023/12/18 08:02:18;;;;;;;15.53;11.67;;;1.10;89.90;;;3.24;61.79;99401.31;5031115;28;20037;-52
2023/12/18 08:04:46;;;;;;;18.43;12.13;;;1.20;89.70;;;3.27;61.55;99406.41;5023866;28;20489;-52
2023/12/18 08:07:14;;;;;;;17.53;12.50;;;1.20;89.70;;;3.29;61.41;99406.34;5025942;28;20052;-51
2023/12/18 08:09:42;;;;;;;15.37;12.40;;;1.20;89.70;;;3.30;61.35;99402.81;5025947;28;20508;-50
2023/12/18 08:12:10;;;;;;;13.00;10.37;;;1.20;89.20;;;3.29;61.39;99395.81;5028787;28;20054;-53
2023/12/18 08:14:41;;;;;;;13.27;8.47;;;1.20;89.50;;;3.32;61.04;99406.22;5033120;28;20152;-48
2023/12/18 08:17:11;;;;;;;9.53;6.93;;;1.20;90.10;;;3.37;61.48;99405.97;5023057;28;21054;-52
2023/12/18 08:19:39;;;;;;;10.43;8.03;;;1.30;90.50;;;3.38;61.88;99403.28;5032071;28;20057;-48
2023/12/18 08:22:07;;;;;;;12.70;8.17;;;1.40;90.80;;;3.43;61.34;99403.06;5031992;28;20044;-51
2023/12/18 08:24:34;;;;;;;10.83;8.93;;;1.40;90.50;;;3.45;61.53;99399.44;5032804;28;20042;-50
2023/12/18 08:27:02;;;;;;;7.63;6.03;;;1.40;90.00;;;3.45;61.87;99390.66;5032624;28;20417;-50
2023/12/18 08:29:29;;;;;;;7.73;5.33;;;1.40;90.10;;;3.46;62.22;99387.97;5031956;28;20041;-52
2023/12/18 08:31:57;;;;;;;11.37;6.67;;;1.50;91.10;;;3.52;62.06;99394.72;5032294;28;20041;-52
2023/12/18 08:34:25;;;;;;;8.47;6.20;;;1.60;91.10;;;3.58;61.65;99397.06;5032696;28;20049;-50
2023/12/18 08:36:53;;;;;;;8.87;5.50;;;1.60;90.30;;;3.60;61.69;99392.56;5032788;28;20052;-51
2023/12/18 08:39:20;;;;;;;7.67;5.10;;;1.70;90.60;;;3.67;62.01;99393.97;5031623;28;20037;-52
2023/12/18 08:41:50;;;;;;;5.73;4.40;;;1.70;90.40;;;3.72;61.87;99388.47;5032569;28;20052;-49
2023/12/18 08:44:18;;;;;;;6.10;4.50;;;1.80;90.40;;;3.78;61.97;99387.31;5032382;28;20038;-52
2023/12/18 08:46:46;;;;;;;8.60;4.90;;;1.90;90.70;;;3.85;61.93;99394.00;5031415;28;20049;-49
2023/12/18 08:49:14;;;;;;;7.50;4.20;;;2.00;90.40;;;3.91;62.42;99396.31;5032484;28;20056;-50
2023/12/18 08:51:42;;;;;;;5.40;4.13;;;2.00;90.10;;;3.96;62.51;99401.38;5031589;28;20044;-49
2023/12/18 08:54:10;;;;;;;7.27;4.47;;;2.10;89.90;;;4.02;61.83;99401.91;5029571;28;20054;-52
2023/12/18 08:56:38;;;;;;;6.70;5.00;;;2.20;89.50;;;4.06;61.89;99403.47;5032371;28;20089;-52
2023/12/18 08:59:06;;;;;;;6.73;4.53;;;2.20;89.10;;;4.11;61.96;99405.84;5032132;28;20048;-51
2023/12/18 09:01:37;;;;;;;7.77;4.10;;;2.20;89.20;;;4.17;61.68;99402.94;5032257;28;20037;-50
2023/12/18 09:04:06;;;;;;;6.17;5.17;;;2.30;89.10;;;4.20;61.72;99397.50;5032090;28;20045;-52
2023/12/18 09:06:35;;;;;;;5.53;4.10;;;2.30;89.00;;;4.24;61.47;99399.03;5032343;28;20386;-50
2023/12/18 09:09:03;;;;;;;9.10;4.67;;;2.30;89.00;;;4.27;61.77;99400.69;5031142;28;20049;-51
2023/12/18 09:11:33;;;;;;;22.37;10.27;;;2.40;88.90;;;4.31;61.97;99396.94;5032068;28;20045;-50
2023/12/18 09:14:03;;;;;;;25.97;11.17;;;2.40;88.90;;;4.35;62.01;99406.41;5032076;28;20049;-51
2023/12/18 09:16:31;;;;;;;17.17;8.63;;;2.50;89.20;;;4.40;62.01;99396.50;5032052;28;20413;-51
2023/12/18 09:18:59;;;;;;;13.73;7.87;;;2.50;89.60;;;4.46;62.37;99395.28;5017702;28;20058;-53
2023/12/18 09:21:26;;;;;;;9.20;5.93;;;2.60;89.80;;;4.50;61.69;99386.31;5022854;28;20053;-52
2023/12/18 09:23:54;;;;;;;7.73;4.53;;;2.70;89.70;;;4.55;61.62;99400.09;5028181;28;20037;-52
2023/12/18 09:26:22;;;;;;;8.60;6.47;;;2.70;89.70;;;4.58;62.24;99383.28;5032156;28;20421;-51
2023/12/18 09:28:49;;;;;;;10.60;5.83;;;2.80;89.70;;;4.63;61.80;99376.78;5031704;28;20041;-52
2023/12/18 09:31:17;;;;;;;9.77;6.33;;;2.80;89.60;;;4.67;62.20;99380.13;5031696;28;20071;-53
2023/12/18 09:33:45;;;;;;;17.37;7.60;;;2.80;89.50;;;4.71;61.64;99377.25;5031758;28;20496;-52
2023/12/18 09:36:14;;;;;;;16.90;8.90;;;2.90;89.70;;;4.77;62.07;99378.72;5030578;28;20056;-50
2023/12/18 09:38:41;;;;;;;13.07;7.80;;;2.90;89.60;;;4.81;62.21;99367.06;5031264;28;20041;-50
2023/12/18 09:41:09;;;;;;;11.33;7.27;;;3.00;89.60;;;4.85;62.24;99370.38;5031486;28;20041;-49
2023/12/18 09:43:37;;;;;;;14.47;7.53;;;3.00;89.30;;;4.89;61.71;99364.00;5027372;28;20449;-53
2023/12/18 09:46:04;;;;;;;12.97;6.87;;;3.10;89.30;;;4.93;61.98;99360.25;5031339;28;20042;-52
2023/12/18 09:48:34;;;;;;;9.37;6.57;;;3.10;89.00;;;4.98;62.44;99366.13;5030156;28;20516;-51
2023/12/18 09:51:09;;;;;;;9.77;7.20;;;3.20;88.30;;;5.02;61.73;99361.53;5031232;28;20413;-49
2023/12/18 09:53:39;;;;;;;12.37;7.73;;;3.20;88.30;;;5.04;62.47;99359.66;5030089;28;20037;-53
2023/12/18 09:56:07;;;;;;;9.77;6.53;;;3.30;88.30;;;5.07;61.44;99356.84;5030120;28;20052;-53
2023/12/18 09:58:36;;;;;;;10.10;6.87;;;3.30;88.40;;;5.06;61.42;99360.41;5031135;28;20052;-51
2023/12/18 10:01:04;;;;;;;10.30;7.00;;;3.20;89.30;;;5.01;62.29;99365.97;4997487;28;20053;-51
2023/12/18 10:03:32;;;;;;;10.83;7.87;;;3.10;89.70;;;4.98;62.04;99363.47;5031323;28;20049;-50
2023/12/18 10:06:00;;;;;;;12.93;8.07;;;3.10;90.50;;;4.92;61.74;99358.53;5031262;28;20070;-48
2023/12/18 10:08:28;;;;;;;11.57;7.77;;;3.00;90.80;;;4.90;62.06;99350.72;5030964;28;20038;-50
2023/12/18 10:10:55;;;;;;;13.07;8.67;;;3.00;91.10;;;4.95;62.01;99353.09;5030285;28;20041;-53
2023/12/18 10:13:25;;;;;;;11.60;8.00;;;3.10;91.50;;;4.99;62.22;99351.16;5030189;28;20033;-50
2023/12/18 10:15:54;;;;;;;10.70;8.03;;;3.10;91.80;;;5.03;62.46;99345.63;5031379;28;20046;-52
2023/12/18 10:18:23;;;;;;;9.83;7.33;;;3.20;91.80;;;5.09;63.14;99345.28;5030581;28;20053;-50
2023/12/18 10:20:52;;;;;;;11.80;7.60;;;3.30;91.40;;;5.14;62.81;99342.38;5029980;28;20689;-50
2023/12/18 10:23:19;;;;;;;10.33;8.00;;;3.40;91.30;;;5.17;62.90;99344.84;5031035;28;20056;-51
2023/12/18 10:25:47;;;;;;;9.97;7.53;;;3.40;91.00;;;5.20;62.34;99344.69;5031117;28;20353;-50
2023/12/18 10:28:15;;;;;;;14.03;8.20;;;3.40;90.90;;;5.23;62.60;99341.84;5030760;28;20113;-53
2023/12/18 10:30:43;;;;;;;10.47;7.77;;;3.40;90.70;;;5.27;62.56;99329.34;5030169;28;20604;-52
2023/12/18 10:33:12;;;;;;;13.17;7.27;;;3.40;90.90;;;5.32;62.61;99335.22;5033232;28;20501;-53